.
WxDataArchive / Data Records for 2010-02-28
2010-02-27 February 2010 2010-03-01

Data Records for Sunday, 28 February 2010

Time	Temp	Chill	HIndex	Humid	Dewpt	 Wind 	HiWind	WindDir	Rain 	Barom 
-----	----	-----	------	-----	-----	------	------	-------	-----	----- 
00:00	32.8	32.8	32.8	91	30.5	0	1	270	0.00	29.823 
00:05	32.8	32.8	32.8	91	30.5	0	1	270	0.00	29.823 
00:10	32.8	32.8	32.8	91	30.5	0	2	270	0.00	29.823 
00:15	32.8	32.8	32.8	91	30.5	0	1	270	0.00	29.824 
00:20	32.8	32.8	32.8	91	30.5	1	3	270	0.00	29.824 
00:25	32.8	32.8	32.8	90	30.2	0	2	315	0.00	29.824 
00:30	32.8	32.8	32.8	90	30.2	0	2	315	0.00	29.826 
00:35	32.8	32.8	32.8	90	30.2	0	3	315	0.00	29.826 
00:40	32.8	32.8	32.8	89	29.9	0	3	248	0.00	29.826 
00:45	32.8	32.8	32.8	89	29.9	0	2	248	0.00	29.827 
00:50	32.8	32.8	32.8	89	29.9	0	1	248	0.00	29.827 
00:55	32.8	32.8	32.8	88	29.6	0	3	0	0.00	29.827 
01:00	32.8	32.8	32.8	88	29.6	0	2	0	0.00	29.832 
01:05	32.8	32.8	32.8	88	29.6	0	1	0	0.00	29.832 
01:10	32.8	32.8	32.8	88	29.6	0	2	0	0.00	29.832 
01:15	32.8	32.8	32.8	88	29.6	0	1	0	0.00	29.833 
01:20	32.8	32.8	32.8	88	29.6	0	1	0	0.00	29.833 
01:25	32.8	32.8	32.8	88	29.6	0	2	0	0.00	29.833 
01:30	32.8	32.8	32.8	88	29.6	0	3	338	0.00	29.834 
01:35	32.7	32.7	32.7	88	29.5	0	3	292	0.00	29.834 
01:40	32.8	32.8	32.8	88	29.6	0	1	292	0.00	29.834 
01:45	32.8	32.8	32.8	88	29.6	0	2	292	0.00	29.833 
01:50	32.8	32.8	32.8	87	29.4	0	2	292	0.00	29.833 
01:55	32.7	32.7	32.7	87	29.3	0	1	292	0.00	29.833 
02:00	32.7	32.7	32.7	87	29.3	0	3	292	0.00	29.834 
02:05	32.8	32.8	32.8	87	29.4	0	2	292	0.00	29.834 
02:10	32.8	32.8	32.8	87	29.4	0	1	292	0.00	29.834 
02:15	32.8	32.8	32.8	87	29.4	0	3	292	0.00	29.843 
02:20	32.7	32.7	32.7	87	29.3	0	1	292	0.00	29.843 
02:25	32.7	32.7	32.7	87	29.3	0	1	292	0.00	29.843 
02:30	32.7	32.7	32.7	87	29.3	0	3	292	0.00	29.843 
02:35	32.7	32.7	32.7	87	29.3	0	0	---	0.00	29.843 
02:40	32.5	32.5	32.5	87	29.1	0	1	292	0.00	29.843 
02:45	32.5	32.5	32.5	87	29.1	0	1	292	0.00	29.842 
02:50	32.5	32.5	32.5	86	28.8	0	1	292	0.00	29.842 
02:55	32.5	32.5	32.5	86	28.8	0	1	292	0.00	29.842 
03:00	32.5	32.5	32.5	86	28.8	0	2	292	0.00	29.844 
03:05	32.5	32.5	32.5	86	28.8	0	2	292	0.00	29.844 
03:10	32.4	32.4	32.4	86	28.7	0	1	292	0.00	29.844 
03:15	32.4	32.4	32.4	86	28.7	0	1	292	0.00	29.846 
03:20	32.4	32.4	32.4	86	28.7	0	1	292	0.00	29.846 
03:25	32.4	32.4	32.4	86	28.7	0	2	292	0.00	29.846 
03:30	32.4	32.4	32.4	86	28.7	0	0	---	0.00	29.847 
03:35	32.4	32.4	32.4	87	29.0	0	1	292	0.00	29.847 
03:40	32.4	32.4	32.4	87	29.0	0	0	---	0.00	29.847 
03:45	32.4	32.4	32.4	87	29.0	0	1	292	0.00	29.848 
03:50	32.4	32.4	32.4	87	29.0	0	1	292	0.00	29.848 
03:55	32.4	32.4	32.4	87	29.0	0	0	---	0.00	29.848 
04:00	32.2	32.2	32.2	88	29.1	0	0	---	0.00	29.847 
04:05	32.2	32.2	32.2	88	29.1	0	0	---	0.00	29.847 
04:10	32.2	32.2	32.2	88	29.1	0	1	292	0.00	29.847 
04:15	32.1	32.1	32.1	88	29.0	0	0	---	0.00	29.851 
04:20	31.9	31.9	31.9	88	28.8	0	0	---	0.00	29.851 
04:25	31.9	31.9	31.9	88	28.8	0	0	---	0.00	29.851 
04:30	31.8	31.8	31.8	88	28.7	0	1	292	0.00	29.854 
04:35	31.8	31.8	31.8	88	28.7	0	0	---	0.00	29.854 
04:40	31.8	31.8	31.8	89	28.9	0	0	---	0.00	29.854 
04:45	31.8	31.8	31.8	89	28.9	0	0	---	0.00	29.862 
04:50	31.6	31.6	31.6	89	28.7	0	0	---	0.00	29.862 
04:55	31.6	31.6	31.6	89	28.7	0	1	292	0.00	29.862 
05:00	31.8	31.8	31.8	89	28.9	0	2	292	0.00	29.866 
05:05	31.8	31.8	31.8	89	28.9	0	1	292	0.00	29.866 
05:10	31.8	31.8	31.8	89	28.9	0	1	292	0.00	29.866 
05:15	31.8	31.8	31.8	89	28.9	0	1	292	0.00	29.871 
05:20	31.9	31.9	31.9	89	29.0	0	2	292	0.00	29.871 
05:25	31.9	31.9	31.9	89	29.0	0	1	292	0.00	29.871 
05:30	31.9	31.9	31.9	89	29.0	0	2	292	0.00	29.879 
05:35	31.9	31.9	31.9	89	29.0	0	1	292	0.00	29.879 
05:40	31.9	31.9	31.9	89	29.0	0	2	292	0.00	29.879 
05:45	31.9	31.9	31.9	89	29.0	0	2	292	0.00	29.885 
05:50	31.9	31.9	31.9	89	29.0	0	1	292	0.00	29.885 
05:55	31.9	31.9	31.9	89	29.0	0	2	292	0.00	29.885 
06:00	31.9	31.9	31.9	88	28.8	0	2	292	0.00	29.892 
06:05	31.9	31.9	31.9	88	28.8	0	2	292	0.00	29.892 
06:10	32.1	32.1	32.1	88	29.0	0	3	292	0.00	29.892 
06:15	32.1	32.1	32.1	88	29.0	1	4	270	0.00	29.895 
06:20	32.1	32.1	32.1	88	29.0	0	1	270	0.00	29.895 
06:25	32.1	32.1	32.1	88	29.0	0	1	270	0.00	29.895 
06:30	32.1	32.1	32.1	88	29.0	1	4	270	0.00	29.900 
06:35	32.1	32.1	32.1	88	29.0	0	1	270	0.00	29.900 
06:40	32.1	32.1	32.1	88	29.0	0	2	270	0.00	29.900 
06:45	32.1	32.1	32.1	88	29.0	0	1	270	0.00	29.902 
06:50	32.1	32.1	32.1	87	28.7	0	3	270	0.00	29.902 
06:55	32.2	32.2	32.2	87	28.8	0	1	270	0.00	29.902 
07:00	32.2	32.2	32.2	87	28.8	0	1	270	0.00	29.910 
07:05	32.2	32.2	32.2	87	28.8	0	1	270	0.00	29.910 
07:10	32.2	32.2	32.2	86	28.5	0	0	---	0.00	29.910 
07:15	32.2	32.2	32.2	86	28.5	0	3	270	0.00	29.912 
07:20	32.2	32.2	32.2	86	28.5	0	2	292	0.00	29.912 
07:25	32.4	32.4	32.4	86	28.7	0	1	292	0.00	29.912 
07:30	32.4	32.4	32.4	86	28.7	1	3	315	0.00	29.924 
07:35	32.4	32.4	32.4	86	28.7	0	2	315	0.00	29.924 
07:40	32.5	32.5	32.5	86	28.8	0	2	315	0.00	29.924 
07:45	32.5	32.5	32.5	86	28.8	1	3	315	0.00	29.928 
07:50	32.5	32.5	32.5	86	28.8	0	2	315	0.00	29.928 
07:55	32.5	32.5	32.5	86	28.8	0	3	315	0.00	29.928 
08:00	32.5	32.5	32.5	87	29.1	0	2	315	0.00	29.933 
08:05	32.5	32.5	32.5	87	29.1	0	2	315	0.00	29.933 
08:10	32.7	32.7	32.7	87	29.3	0	2	315	0.00	29.933 
08:15	32.7	32.7	32.7	87	29.3	0	2	315	0.00	29.934 
08:20	32.7	32.7	32.7	87	29.3	0	3	315	0.00	29.934 
08:25	32.8	32.8	32.8	87	29.4	1	3	270	0.00	29.934 
08:30	32.8	32.8	32.8	87	29.4	0	1	270	0.00	29.939 
08:35	32.9	32.9	32.9	87	29.5	1	3	338	0.00	29.939 
08:40	33.1	33.1	33.1	87	29.7	0	2	338	0.00	29.939 
08:45	33.1	33.1	33.1	86	29.4	0	0	---	0.00	29.940 
08:50	33.2	33.2	33.2	86	29.5	0	1	338	0.00	29.940 
08:55	33.4	33.4	33.4	86	29.7	1	3	338	0.00	29.940 
09:00	33.5	33.5	33.5	85	29.5	0	1	270	0.00	29.943 
09:05	33.7	33.7	33.7	85	29.7	0	2	270	0.00	29.943 
09:10	33.8	33.8	33.8	84	29.5	0	2	270	0.00	29.943 
09:15	34.0	34.0	34.0	84	29.7	0	2	270	0.00	29.943 
09:20	34.1	34.1	34.1	84	29.8	0	1	270	0.00	29.943 
09:25	34.1	34.1	34.1	83	29.5	0	2	270	0.00	29.943 
09:30	34.4	34.4	34.4	83	29.8	0	2	315	0.00	29.950 
09:35	34.4	34.4	34.4	82	29.5	1	4	315	0.00	29.950 
09:40	34.6	34.6	34.6	81	29.4	0	2	338	0.00	29.950 
09:45	34.7	34.7	34.7	81	29.5	1	3	338	0.00	29.954 
09:50	34.7	34.7	34.7	81	29.5	1	3	338	0.00	29.954 
09:55	34.9	34.9	34.9	81	29.7	1	3	338	0.00	29.954 
10:00	35.0	35.0	35.0	80	29.5	1	3	315	0.00	29.957 
10:05	35.0	35.0	35.0	80	29.5	0	2	315	0.00	29.957 
10:10	35.2	35.2	35.2	79	29.4	1	5	292	0.00	29.957 
10:15	35.2	35.2	35.2	78	29.0	1	3	338	0.00	29.958 
10:20	35.3	35.3	35.3	78	29.1	1	3	22	0.00	29.958 
10:25	35.5	35.5	35.5	77	29.0	1	5	315	0.00	29.958 
10:30	35.5	35.5	35.5	77	29.0	1	4	292	0.00	29.965 
10:35	35.8	35.8	35.8	77	29.3	0	2	338	0.00	29.965 
10:40	35.9	35.9	35.9	77	29.4	0	2	338	0.00	29.965 
10:45	36.0	36.0	36.0	77	29.5	0	2	338	0.00	29.970 
10:50	36.2	36.2	36.2	76	29.4	1	4	315	0.00	29.970 
10:55	36.2	36.2	36.2	76	29.4	1	3	338	0.00	29.970 
11:00	36.3	36.3	36.3	76	29.5	0	4	338	0.00	29.974 
11:05	36.5	36.5	36.5	76	29.7	1	3	225	0.00	29.974 
11:10	36.5	36.5	36.5	75	29.3	1	3	0	0.00	29.974 
11:15	36.5	36.5	36.5	75	29.3	1	3	0	0.00	29.980 
11:20	36.8	36.8	36.8	75	29.6	1	3	225	0.00	29.980 
11:25	36.9	36.9	36.9	74	29.4	1	3	270	0.00	29.980 
11:30	37.3	37.3	37.3	73	29.5	0	2	270	0.00	29.978 
11:35	37.6	37.6	37.6	72	29.4	1	3	270	0.00	29.978 
11:40	37.8	37.8	37.8	72	29.6	0	2	270	0.00	29.978 
11:45	37.8	37.8	37.8	72	29.6	1	4	338	0.00	29.981 
11:50	37.8	37.8	37.8	72	29.6	1	4	338	0.00	29.981 
11:55	37.6	37.6	37.6	70	28.7	1	3	292	0.00	29.981 
12:00	37.6	37.6	37.6	71	29.1	1	4	270	0.00	29.982 
12:05	37.8	37.8	37.8	70	28.9	1	4	270	0.00	29.982 
12:10	38.0	38.0	38.0	70	29.1	1	3	270	0.00	29.982 
12:15	38.0	38.0	38.0	70	29.1	1	3	338	0.00	29.981 
12:20	37.9	37.9	37.9	69	28.7	1	3	315	0.00	29.981 
12:25	37.9	37.9	37.9	70	29.0	1	2	315	0.00	29.981 
12:30	37.9	37.9	37.9	70	29.0	1	4	270	0.00	29.980 
12:35	38.2	38.2	38.2	70	29.3	1	2	338	0.00	29.980 
12:40	38.3	38.3	38.3	69	29.0	1	4	338	0.00	29.980 
12:45	38.3	38.3	38.3	69	29.0	1	3	338	0.00	29.975 
12:50	38.5	38.5	38.5	69	29.2	1	4	270	0.00	29.975 
12:55	38.5	38.5	38.5	69	29.2	1	3	292	0.00	29.975 
13:00	38.6	38.6	38.6	69	29.3	2	5	248	0.00	29.970 
13:05	38.9	38.9	38.9	68	29.3	1	5	248	0.00	29.970 
13:10	38.9	38.9	38.9	68	29.3	1	5	338	0.00	29.970 
13:15	38.9	38.9	38.9	68	29.3	1	2	315	0.00	29.971 
13:20	39.2	39.2	39.2	68	29.5	1	6	315	0.00	29.971 
13:25	39.2	39.2	39.2	67	29.2	1	3	338	0.00	29.971 
13:30	38.9	38.9	38.9	67	28.9	1	2	338	0.00	29.972 
13:35	38.9	38.9	38.9	67	28.9	1	3	338	0.00	29.972 
13:40	39.1	39.1	39.1	67	29.1	1	4	338	0.00	29.972 
13:45	39.2	39.2	39.2	67	29.2	1	3	315	0.00	29.974 
13:50	39.5	39.5	39.5	67	29.5	1	3	270	0.00	29.974 
13:55	39.3	39.3	39.3	67	29.3	1	3	270	0.00	29.974 
14:00	39.3	39.3	39.3	66	28.9	1	3	315	0.00	29.971 
14:05	39.2	39.2	39.2	67	29.2	1	4	315	0.00	29.971 
14:10	39.2	39.2	39.2	67	29.2	0	2	338	0.00	29.971 
14:15	39.5	39.5	39.5	67	29.5	1	4	338	0.00	29.968 
14:20	39.8	39.8	39.8	66	29.4	1	3	338	0.00	29.968 
14:25	39.6	39.6	39.6	65	28.8	1	4	338	0.00	29.968 
14:30	39.6	39.6	39.6	66	29.2	1	3	270	0.00	29.966 
14:35	39.8	39.8	39.8	65	29.0	0	2	315	0.00	29.966 
14:40	39.9	39.9	39.9	65	29.1	0	4	315	0.00	29.966 
14:45	39.8	39.8	39.8	65	29.0	1	3	315	0.00	29.964 
14:50	39.6	39.6	39.6	66	29.2	1	2	315	0.00	29.964 
14:55	39.8	39.8	39.8	65	29.0	1	4	270	0.00	29.964 
15:00	39.9	39.9	39.9	65	29.1	1	5	270	0.00	29.965 
15:05	39.9	39.9	39.9	65	29.1	1	3	0	0.00	29.965 
15:10	39.8	39.8	39.8	65	29.0	1	3	292	0.00	29.965 
15:15	39.8	39.8	39.8	66	29.4	1	3	338	0.00	29.968 
15:20	39.8	39.8	39.8	65	29.0	1	3	315	0.00	29.968 
15:25	39.8	39.8	39.8	66	29.4	0	2	315	0.00	29.968 
15:30	39.9	39.9	39.9	66	29.5	1	2	315	0.00	29.969 
15:35	39.8	39.8	39.8	66	29.4	1	2	0	0.00	29.969 
15:40	39.8	39.8	39.8	67	29.8	1	3	338	0.00	29.969 
15:45	39.8	39.8	39.8	65	29.0	1	5	315	0.00	29.968 
15:50	39.9	39.9	39.9	66	29.5	0	2	270	0.00	29.968 
15:55	39.9	39.9	39.9	65	29.1	0	4	270	0.00	29.968 
16:00	40.2	40.2	40.2	65	29.4	0	2	315	0.00	29.968 
16:05	39.9	39.9	39.9	65	29.1	1	4	292	0.00	29.968 
16:10	39.8	39.8	39.8	67	29.8	1	3	270	0.00	29.968 
16:15	39.6	39.6	39.6	67	29.6	0	2	270	0.00	29.968 
16:20	39.8	39.8	39.8	67	29.8	0	1	270	0.00	29.968 
16:25	39.8	39.8	39.8	67	29.8	0	2	270	0.00	29.968 
16:30	39.6	39.6	39.6	67	29.6	0	2	270	0.00	29.969 
16:35	39.5	39.5	39.5	68	29.8	0	2	315	0.00	29.969 
16:40	39.2	39.2	39.2	68	29.5	1	4	338	0.00	29.969 
16:45	39.1	39.1	39.1	69	29.8	1	4	338	0.00	29.972 
16:50	38.8	38.8	38.8	68	29.2	1	2	338	0.00	29.972 
16:55	38.8	38.8	38.8	69	29.5	1	2	338	0.00	29.972 
17:00	38.6	38.6	38.6	69	29.3	0	2	338	0.00	29.974 
17:05	38.5	38.5	38.5	70	29.6	1	2	338	0.00	29.974 
17:10	38.3	38.3	38.3	71	29.7	0	2	292	0.00	29.974 
17:15	38.3	38.3	38.3	72	30.1	0	2	315	0.00	29.980 
17:20	38.2	38.2	38.2	72	30.0	1	3	315	0.00	29.980 
17:25	38.0	38.0	38.0	73	30.1	1	2	315	0.00	29.980 
17:30	37.9	37.9	37.9	74	30.4	1	3	315	0.00	29.985 
17:35	37.8	37.8	37.8	75	30.6	1	5	225	0.00	29.985 
17:40	37.8	37.8	37.8	75	30.6	1	3	248	0.00	29.985 
17:45	37.6	37.6	37.6	75	30.4	0	1	248	0.00	29.986 
17:50	37.6	37.6	37.6	75	30.4	0	3	248	0.00	29.986 
17:55	37.6	37.6	37.6	76	30.7	0	3	248	0.00	29.986 
18:00	37.5	37.5	37.5	76	30.6	0	2	248	0.00	29.988 
18:05	37.5	37.5	37.5	76	30.6	0	1	248	0.00	29.988 
18:10	37.3	37.3	37.3	76	30.4	0	2	248	0.00	29.988 
18:15	37.3	37.3	37.3	77	30.8	0	2	248	0.00	29.999 
18:20	37.2	37.2	37.2	77	30.7	0	0	---	0.00	29.999 
18:25	37.0	37.0	37.0	77	30.5	0	1	248	0.00	29.999 
18:30	37.0	37.0	37.0	78	30.8	0	2	248	0.00	30.003 
18:35	36.9	36.9	36.9	78	30.7	0	2	0	0.00	30.003 
18:40	36.9	36.9	36.9	79	31.0	0	1	0	0.00	30.003 
18:45	36.8	36.8	36.8	79	30.9	0	1	0	0.00	30.006 
18:50	36.6	36.6	36.6	80	31.0	0	1	0	0.00	30.006 
18:55	36.6	36.6	36.6	80	31.0	0	0	---	0.00	30.006 
19:00	36.5	36.5	36.5	81	31.2	0	1	0	0.00	30.009 
19:05	36.3	36.3	36.3	81	31.0	0	1	0	0.00	30.009 
19:10	36.2	36.2	36.2	81	30.9	0	1	0	0.00	30.009 
19:15	36.2	36.2	36.2	82	31.2	0	2	0	0.00	30.018 
19:20	36.0	36.0	36.0	82	31.0	0	3	0	0.00	30.018 
19:25	36.0	36.0	36.0	82	31.0	0	3	270	0.00	30.018 
19:30	35.9	35.9	35.9	83	31.2	0	1	270	0.00	30.019 
19:35	35.9	35.9	35.9	83	31.2	0	2	270	0.00	30.019 
19:40	35.8	35.8	35.8	83	31.2	0	1	270	0.00	30.019 
19:45	35.8	35.8	35.8	84	31.4	0	0	---	0.00	30.022 
19:50	35.8	35.8	35.8	84	31.4	0	1	270	0.00	30.022 
19:55	35.6	35.6	35.6	84	31.3	0	1	270	0.00	30.022 
20:00	35.6	35.6	35.6	84	31.3	0	1	270	0.00	30.029 
20:05	35.6	35.6	35.6	84	31.3	0	1	270	0.00	30.029 
20:10	35.5	35.5	35.5	84	31.2	0	1	270	0.00	30.029 
20:15	35.5	35.5	35.5	84	31.2	0	1	270	0.00	30.027 
20:20	35.5	35.5	35.5	84	31.2	0	1	270	0.00	30.027 
20:25	35.5	35.5	35.5	84	31.2	0	1	270	0.00	30.027 
20:30	35.3	35.3	35.3	85	31.2	0	1	270	0.00	30.035 
20:35	35.3	35.3	35.3	85	31.2	0	2	270	0.00	30.035 
20:40	35.3	35.3	35.3	85	31.2	0	1	270	0.00	30.035 
20:45	35.2	35.2	35.2	85	31.2	0	2	270	0.00	30.040 
20:50	35.2	35.2	35.2	85	31.2	1	3	270	0.00	30.040 
20:55	35.2	35.2	35.2	84	30.9	0	2	270	0.00	30.040 
21:00	35.2	35.2	35.2	84	30.9	0	2	270	0.00	30.045 
21:05	35.0	35.0	35.0	84	30.7	0	2	338	0.00	30.045 
21:10	35.0	35.0	35.0	84	30.7	0	2	315	0.00	30.045 
21:15	35.0	35.0	35.0	85	31.0	0	2	315	0.00	30.047 
21:20	34.9	34.9	34.9	85	30.9	0	2	315	0.00	30.047 
21:25	34.7	34.7	34.7	86	30.9	0	2	315	0.00	30.047 
21:30	34.7	34.7	34.7	86	30.9	0	2	315	0.00	30.048 
21:35	34.6	34.6	34.6	86	30.9	0	2	315	0.00	30.048 
21:40	34.6	34.6	34.6	86	30.9	0	2	315	0.00	30.048 
21:45	34.6	34.6	34.6	86	30.9	0	2	315	0.00	30.049 
21:50	34.6	34.6	34.6	86	30.9	0	2	315	0.00	30.049 
21:55	34.6	34.6	34.6	86	30.9	1	3	315	0.00	30.049 
22:00	34.6	34.6	34.6	86	30.9	0	2	315	0.00	30.050 
22:05	34.4	34.4	34.4	86	30.7	0	2	315	0.00	30.050 
22:10	34.4	34.4	34.4	87	30.9	0	2	315	0.00	30.050 
22:15	34.4	34.4	34.4	87	30.9	0	2	315	0.00	30.050 
22:20	34.4	34.4	34.4	86	30.7	1	4	292	0.00	30.050 
22:25	34.3	34.3	34.3	86	30.6	1	4	248	0.00	30.050 
22:30	34.3	34.3	34.3	86	30.6	0	3	0	0.00	30.055 
22:35	34.3	34.3	34.3	85	30.3	1	3	338	0.00	30.055 
22:40	34.1	34.1	34.1	85	30.1	1	2	315	0.00	30.055 
22:45	34.1	34.1	34.1	84	29.8	0	2	315	0.00	30.060 
22:50	34.1	34.1	34.1	84	29.8	0	2	315	0.00	30.060 
22:55	34.1	34.1	34.1	84	29.8	1	3	315	0.00	30.060 
23:00	34.1	34.1	34.1	84	29.8	0	2	315	0.00	30.062 
23:05	34.0	34.0	34.0	84	29.7	1	4	315	0.00	30.062 
23:10	34.0	34.0	34.0	84	29.7	1	3	248	0.00	30.062 
23:15	34.0	34.0	34.0	84	29.7	1	4	338	0.00	30.062 
23:20	34.0	34.0	34.0	84	29.7	1	2	0	0.00	30.062 
23:25	34.0	34.0	34.0	83	29.4	1	3	338	0.00	30.062 
23:30	34.0	34.0	34.0	83	29.4	1	3	0	0.00	30.062 
23:35	34.0	34.0	34.0	83	29.4	1	2	0	0.00	30.062 
23:40	34.0	34.0	34.0	83	29.4	1	2	338	0.00	30.062 
23:45	33.8	33.8	33.8	83	29.2	0	1	338	0.00	30.064 
23:50	33.8	33.8	33.8	83	29.2	0	1	338	0.00	30.064 
23:55	33.8	33.8	33.8	83	29.2	0	1	338	0.00	30.064 

CoCoRaHS
IN-AL-39
A2 Web Hosting
Creative Commons License
GoDaddy
search engine by freefind advanced

loaded 2018-11-18 12:08:07 • last modified 2010-11-18 10:43:29
Privacy PolicyDisclaimer
• wx.awcolley.com is powered by PmWiki v.2002016 •
• all content (unless otherwise noted) © 2018 A W Colley